PTRZB SWPM-SWJN
Flight info
| Callsign | PTRZB |
|---|---|
| Flight time | 0h 56m |
| Altitude | 5500 |
| Route | DCT 1134S06045W 1135S06019W 1135S05956W 1137S05933W 1131S05907W DCT |
| Aircraft | C208/L-SDFGR/C |
Departure
| Time | 2026-04-27 12:57 |
|---|---|
| Airport | Pimenta Bueno Airport (SWPM) |
Arrival
| Time | 2026-04-27 13:53 |
|---|---|
| Airport | Juína Airport (SWJN) |
| Time | Latitude | Longitude | Altitude | Speed | Heading |
|---|---|---|---|---|---|
| 2026-04-27 12:47 | -11.64460 | -61.18152 | 695 ft | 0 kts | 308° |
| 2026-04-27 12:52 | -11.64470 | -61.18142 | 692 ft | 2 kts | 332° |
| 2026-04-27 12:53 | -11.64484 | -61.18148 | 695 ft | 0 kts | 55° |
| 2026-04-27 12:54 | -11.64471 | -61.18135 | 690 ft | 5 kts | 38° |
| 2026-04-27 12:54 | -11.64445 | -61.18115 | 690 ft | 7 kts | 39° |
| 2026-04-27 12:54 | -11.64403 | -61.18133 | 693 ft | 10 kts | 256° |
| 2026-04-27 12:54 | -11.64454 | -61.18186 | 695 ft | 11 kts | 223° |
| 2026-04-27 12:55 | -11.64514 | -61.18239 | 694 ft | 13 kts | 220° |
| 2026-04-27 12:55 | -11.64575 | -61.18275 | 691 ft | 9 kts | 284° |
| 2026-04-27 12:55 | -11.64546 | -61.18271 | 693 ft | 0 kts | 43° |
| 2026-04-27 12:56 | -11.64534 | -61.18259 | 693 ft | 23 kts | 44° |
| 2026-04-27 12:56 | -11.64176 | -61.17921 | 699 ft | 105 kts | 43° |
| 2026-04-27 12:57 | -11.63634 | -61.17350 | 997 ft | 115 kts | 61° |
| 2026-04-27 12:57 | -11.63673 | -61.16528 | 1346 ft | 122 kts | 108° |
| 2026-04-27 12:57 | -11.63710 | -61.15700 | 1670 ft | 123 kts | 79° |
| 2026-04-27 12:57 | -11.63585 | -61.14774 | 1996 ft | 139 kts | 79° |
| 2026-04-27 12:58 | -11.63424 | -61.13772 | 2308 ft | 147 kts | 78° |
| 2026-04-27 12:58 | -11.63264 | -61.12766 | 2661 ft | 142 kts | 78° |
| 2026-04-27 12:58 | -11.63099 | -61.11764 | 3034 ft | 149 kts | 78° |
| 2026-04-27 12:58 | -11.62917 | -61.10694 | 3381 ft | 156 kts | 78° |
| 2026-04-27 12:59 | -11.62737 | -61.09631 | 3687 ft | 147 kts | 78° |
| 2026-04-27 12:59 | -11.62566 | -61.08598 | 4042 ft | 153 kts | 81° |
| 2026-04-27 12:59 | -11.62386 | -61.07518 | 4369 ft | 154 kts | 77° |
| 2026-04-27 12:59 | -11.62202 | -61.06470 | 4704 ft | 146 kts | 78° |
| 2026-04-27 13:00 | -11.62033 | -61.05457 | 5035 ft | 143 kts | 78° |
| 2026-04-27 13:00 | -11.61868 | -61.04455 | 5359 ft | 144 kts | 77° |
| 2026-04-27 13:00 | -11.61690 | -61.03432 | 5533 ft | 153 kts | 78° |
| 2026-04-27 13:00 | -11.61503 | -61.02328 | 5541 ft | 161 kts | 78° |
| 2026-04-27 13:01 | -11.61306 | -61.01175 | 5535 ft | 166 kts | 77° |
| 2026-04-27 13:01 | -11.61110 | -61.00006 | 5530 ft | 170 kts | 78° |
| 2026-04-27 13:01 | -11.60917 | -60.98822 | 5536 ft | 171 kts | 77° |
| 2026-04-27 13:01 | -11.60704 | -60.97619 | 5540 ft | 173 kts | 78° |
| 2026-04-27 13:02 | -11.60575 | -60.96821 | 5543 ft | 172 kts | 78° |
| 2026-04-27 13:02 | -11.60371 | -60.95601 | 5534 ft | 176 kts | 78° |
| 2026-04-27 13:02 | -11.60162 | -60.94374 | 5523 ft | 175 kts | 78° |
| 2026-04-27 13:02 | -11.59959 | -60.93152 | 5525 ft | 175 kts | 78° |
| 2026-04-27 13:03 | -11.59741 | -60.91945 | 5533 ft | 172 kts | 78° |
| 2026-04-27 13:03 | -11.59544 | -60.90731 | 5540 ft | 175 kts | 78° |
| 2026-04-27 13:03 | -11.59341 | -60.89499 | 5511 ft | 177 kts | 78° |
| 2026-04-27 13:03 | -11.59129 | -60.88283 | 5531 ft | 172 kts | 77° |
| 2026-04-27 13:04 | -11.58927 | -60.87092 | 5530 ft | 170 kts | 78° |
| 2026-04-27 13:04 | -11.58729 | -60.85920 | 5523 ft | 169 kts | 78° |
| 2026-04-27 13:04 | -11.58531 | -60.84747 | 5527 ft | 168 kts | 78° |
| 2026-04-27 13:04 | -11.58333 | -60.83561 | 5539 ft | 172 kts | 78° |
| 2026-04-27 13:05 | -11.58119 | -60.82356 | 5541 ft | 173 kts | 77° |
| 2026-04-27 13:05 | -11.57901 | -60.81143 | 5523 ft | 174 kts | 78° |
| 2026-04-27 13:05 | -11.57723 | -60.79933 | 5535 ft | 172 kts | 78° |
| 2026-04-27 13:05 | -11.57511 | -60.78718 | 5529 ft | 174 kts | 78° |
| 2026-04-27 13:06 | -11.57305 | -60.77507 | 5545 ft | 173 kts | 78° |
| 2026-04-27 13:06 | -11.57096 | -60.76295 | 5535 ft | 173 kts | 79° |
| 2026-04-27 13:06 | -11.57112 | -60.75090 | 5538 ft | 172 kts | 93° |
| 2026-04-27 13:06 | -11.57194 | -60.73852 | 5541 ft | 175 kts | 90° |
| 2026-04-27 13:07 | -11.57249 | -60.72614 | 5536 ft | 174 kts | 90° |
| 2026-04-27 13:07 | -11.57315 | -60.71384 | 5538 ft | 173 kts | 91° |
| 2026-04-27 13:07 | -11.57388 | -60.70156 | 5527 ft | 173 kts | 90° |
| 2026-04-27 13:07 | -11.57456 | -60.68955 | 5533 ft | 171 kts | 90° |
| 2026-04-27 13:08 | -11.57524 | -60.67749 | 5549 ft | 172 kts | 90° |
| 2026-04-27 13:08 | -11.57587 | -60.66513 | 5542 ft | 176 kts | 90° |
| 2026-04-27 13:08 | -11.57657 | -60.65265 | 5538 ft | 176 kts | 90° |
| 2026-04-27 13:08 | -11.57732 | -60.64019 | 5544 ft | 177 kts | 90° |
| 2026-04-27 13:09 | -11.57798 | -60.62762 | 5528 ft | 175 kts | 90° |
| 2026-04-27 13:09 | -11.57870 | -60.61530 | 5530 ft | 172 kts | 90° |
| 2026-04-27 13:09 | -11.57935 | -60.60328 | 5531 ft | 171 kts | 90° |
| 2026-04-27 13:09 | -11.58001 | -60.59121 | 5530 ft | 170 kts | 90° |
| 2026-04-27 13:10 | -11.58069 | -60.57916 | 5524 ft | 170 kts | 90° |
| 2026-04-27 13:10 | -11.58136 | -60.56703 | 5532 ft | 171 kts | 91° |
| 2026-04-27 13:10 | -11.58208 | -60.55486 | 5529 ft | 174 kts | 90° |
| 2026-04-27 13:10 | -11.58267 | -60.54279 | 5531 ft | 172 kts | 90° |
| 2026-04-27 13:11 | -11.58340 | -60.53067 | 5531 ft | 171 kts | 90° |
| 2026-04-27 13:11 | -11.58401 | -60.51858 | 5528 ft | 170 kts | 90° |
| 2026-04-27 13:11 | -11.58472 | -60.50641 | 5539 ft | 174 kts | 90° |
| 2026-04-27 13:11 | -11.58536 | -60.49386 | 5552 ft | 177 kts | 90° |
| 2026-04-27 13:12 | -11.58607 | -60.48125 | 5549 ft | 182 kts | 90° |
| 2026-04-27 13:12 | -11.58681 | -60.46841 | 5534 ft | 177 kts | 90° |
| 2026-04-27 13:12 | -11.58736 | -60.45572 | 5532 ft | 181 kts | 89° |
| 2026-04-27 13:12 | -11.58807 | -60.44299 | 5532 ft | 177 kts | 92° |
| 2026-04-27 13:13 | -11.58905 | -60.43059 | 5523 ft | 173 kts | 91° |
| 2026-04-27 13:13 | -11.58964 | -60.41842 | 5531 ft | 171 kts | 90° |
| 2026-04-27 13:13 | -11.59025 | -60.40648 | 5528 ft | 170 kts | 91° |
| 2026-04-27 13:13 | -11.59089 | -60.39457 | 5537 ft | 167 kts | 90° |
| 2026-04-27 13:14 | -11.59152 | -60.38269 | 5534 ft | 168 kts | 90° |
| 2026-04-27 13:14 | -11.59217 | -60.37077 | 5533 ft | 168 kts | 91° |
| 2026-04-27 13:14 | -11.59284 | -60.35882 | 5533 ft | 168 kts | 91° |
| 2026-04-27 13:14 | -11.59351 | -60.34687 | 5527 ft | 169 kts | 90° |
| 2026-04-27 13:15 | -11.59413 | -60.33487 | 5538 ft | 170 kts | 90° |
| 2026-04-27 13:15 | -11.59479 | -60.32285 | 5543 ft | 170 kts | 91° |
| 2026-04-27 13:15 | -11.59485 | -60.31078 | 5539 ft | 170 kts | 85° |
| 2026-04-27 13:15 | -11.59461 | -60.29887 | 5539 ft | 170 kts | 86° |
| 2026-04-27 13:16 | -11.59441 | -60.28684 | 5544 ft | 169 kts | 86° |
| 2026-04-27 13:16 | -11.59422 | -60.27482 | 5543 ft | 170 kts | 86° |
| 2026-04-27 13:16 | -11.59400 | -60.26281 | 5540 ft | 169 kts | 86° |
| 2026-04-27 13:16 | -11.59379 | -60.25084 | 5540 ft | 168 kts | 86° |
| 2026-04-27 13:17 | -11.59358 | -60.23886 | 5539 ft | 169 kts | 86° |
| 2026-04-27 13:17 | -11.59336 | -60.22689 | 5539 ft | 168 kts | 86° |
| 2026-04-27 13:17 | -11.59316 | -60.21492 | 5541 ft | 169 kts | 86° |
| 2026-04-27 13:17 | -11.59294 | -60.20294 | 5541 ft | 169 kts | 86° |
| 2026-04-27 13:18 | -11.59279 | -60.19116 | 5540 ft | 167 kts | 86° |
| 2026-04-27 13:18 | -11.59251 | -60.17929 | 5560 ft | 168 kts | 83° |
| 2026-04-27 13:18 | -11.59226 | -60.16726 | 5547 ft | 170 kts | 86° |
| 2026-04-27 13:18 | -11.59209 | -60.15507 | 5546 ft | 169 kts | 86° |
| 2026-04-27 13:19 | -11.59187 | -60.14327 | 5547 ft | 168 kts | 86° |
| 2026-04-27 13:19 | -11.59164 | -60.13132 | 5549 ft | 168 kts | 86° |
| 2026-04-27 13:19 | -11.59143 | -60.11934 | 5547 ft | 169 kts | 86° |
| 2026-04-27 13:19 | -11.59120 | -60.10740 | 5545 ft | 168 kts | 86° |
| 2026-04-27 13:20 | -11.59099 | -60.09544 | 5545 ft | 168 kts | 86° |
| 2026-04-27 13:20 | -11.59077 | -60.08353 | 5540 ft | 167 kts | 86° |
| 2026-04-27 13:20 | -11.59056 | -60.07167 | 5544 ft | 167 kts | 86° |
| 2026-04-27 13:20 | -11.59033 | -60.05977 | 5544 ft | 167 kts | 86° |
| 2026-04-27 13:21 | -11.59011 | -60.04802 | 5544 ft | 168 kts | 86° |
| 2026-04-27 13:21 | -11.58989 | -60.03614 | 5542 ft | 167 kts | 86° |
| 2026-04-27 13:21 | -11.58967 | -60.02422 | 5544 ft | 168 kts | 86° |
| 2026-04-27 13:21 | -11.58945 | -60.01229 | 5540 ft | 168 kts | 87° |
| 2026-04-27 13:22 | -11.58924 | -60.00039 | 5547 ft | 168 kts | 86° |
| 2026-04-27 13:22 | -11.58900 | -59.98842 | 5544 ft | 169 kts | 86° |
| 2026-04-27 13:22 | -11.58879 | -59.97652 | 5539 ft | 167 kts | 86° |
| 2026-04-27 13:22 | -11.58856 | -59.96468 | 5542 ft | 167 kts | 86° |
| 2026-04-27 13:23 | -11.58834 | -59.95278 | 5542 ft | 168 kts | 86° |
| 2026-04-27 13:23 | -11.58812 | -59.94102 | 5542 ft | 169 kts | 86° |
| 2026-04-27 13:23 | -11.58867 | -59.92910 | 5543 ft | 168 kts | 92° |
| 2026-04-27 13:23 | -11.58967 | -59.91719 | 5545 ft | 168 kts | 91° |
| 2026-04-27 13:24 | -11.59059 | -59.90530 | 5543 ft | 168 kts | 91° |
| 2026-04-27 13:24 | -11.59150 | -59.89334 | 5545 ft | 169 kts | 91° |
| 2026-04-27 13:24 | -11.59242 | -59.88137 | 5547 ft | 169 kts | 91° |
| 2026-04-27 13:24 | -11.59334 | -59.86943 | 5543 ft | 169 kts | 91° |
| 2026-04-27 13:25 | -11.59427 | -59.85743 | 5546 ft | 170 kts | 91° |
| 2026-04-27 13:25 | -11.59518 | -59.84556 | 5547 ft | 170 kts | 91° |
| 2026-04-27 13:25 | -11.59611 | -59.83358 | 5545 ft | 169 kts | 91° |
| 2026-04-27 13:25 | -11.59702 | -59.82161 | 5543 ft | 170 kts | 91° |
| 2026-04-27 13:26 | -11.59796 | -59.80954 | 5549 ft | 170 kts | 92° |
| 2026-04-27 13:26 | -11.59888 | -59.79754 | 5546 ft | 170 kts | 91° |
| 2026-04-27 13:26 | -11.59981 | -59.78555 | 5548 ft | 170 kts | 91° |
| 2026-04-27 13:26 | -11.60072 | -59.77355 | 5546 ft | 169 kts | 91° |
| 2026-04-27 13:27 | -11.60165 | -59.76162 | 5548 ft | 168 kts | 91° |
| 2026-04-27 13:27 | -11.60256 | -59.74970 | 5542 ft | 168 kts | 91° |
| 2026-04-27 13:27 | -11.60347 | -59.73776 | 5543 ft | 168 kts | 91° |
| 2026-04-27 13:27 | -11.60438 | -59.72600 | 5542 ft | 168 kts | 91° |
| 2026-04-27 13:28 | -11.60529 | -59.71413 | 5541 ft | 168 kts | 92° |
| 2026-04-27 13:28 | -11.60620 | -59.70223 | 5540 ft | 168 kts | 91° |
| 2026-04-27 13:28 | -11.60712 | -59.69031 | 5543 ft | 168 kts | 92° |
| 2026-04-27 13:28 | -11.60802 | -59.67838 | 5540 ft | 168 kts | 92° |
| 2026-04-27 13:29 | -11.60892 | -59.66667 | 5545 ft | 168 kts | 91° |
| 2026-04-27 13:29 | -11.60984 | -59.65476 | 5541 ft | 168 kts | 91° |
| 2026-04-27 13:29 | -11.61072 | -59.64291 | 5543 ft | 168 kts | 91° |
| 2026-04-27 13:29 | -11.61165 | -59.63108 | 5538 ft | 167 kts | 92° |
| 2026-04-27 13:30 | -11.61255 | -59.61926 | 5540 ft | 167 kts | 92° |
| 2026-04-27 13:30 | -11.61346 | -59.60741 | 5541 ft | 168 kts | 91° |
| 2026-04-27 13:30 | -11.61435 | -59.59555 | 5540 ft | 167 kts | 91° |
| 2026-04-27 13:30 | -11.61525 | -59.58371 | 5540 ft | 168 kts | 91° |
| 2026-04-27 13:31 | -11.61617 | -59.57179 | 5541 ft | 168 kts | 91° |
| 2026-04-27 13:31 | -11.61706 | -59.55991 | 5545 ft | 168 kts | 91° |
| 2026-04-27 13:31 | -11.61724 | -59.54806 | 5542 ft | 167 kts | 79° |
| 2026-04-27 13:31 | -11.61439 | -59.53664 | 5542 ft | 166 kts | 74° |
| 2026-04-27 13:32 | -11.61186 | -59.52530 | 5543 ft | 167 kts | 75° |
| 2026-04-27 13:32 | -11.60920 | -59.51375 | 5541 ft | 167 kts | 75° |
| 2026-04-27 13:32 | -11.60654 | -59.50227 | 5541 ft | 166 kts | 75° |
| 2026-04-27 13:32 | -11.60387 | -59.49079 | 5544 ft | 167 kts | 75° |
| 2026-04-27 13:33 | -11.60118 | -59.47927 | 5543 ft | 167 kts | 75° |
| 2026-04-27 13:33 | -11.59850 | -59.46777 | 5543 ft | 166 kts | 75° |
| 2026-04-27 13:33 | -11.59583 | -59.45629 | 5543 ft | 166 kts | 75° |
| 2026-04-27 13:33 | -11.59320 | -59.44500 | 5544 ft | 165 kts | 75° |
| 2026-04-27 13:34 | -11.59054 | -59.43360 | 5543 ft | 166 kts | 75° |
| 2026-04-27 13:34 | -11.58788 | -59.42214 | 5540 ft | 166 kts | 75° |
| 2026-04-27 13:34 | -11.58519 | -59.41066 | 5543 ft | 167 kts | 75° |
| 2026-04-27 13:34 | -11.58252 | -59.39917 | 5542 ft | 166 kts | 75° |
| 2026-04-27 13:35 | -11.57985 | -59.38771 | 5542 ft | 166 kts | 75° |
| 2026-04-27 13:35 | -11.57717 | -59.37625 | 5541 ft | 166 kts | 75° |
| 2026-04-27 13:35 | -11.57450 | -59.36479 | 5542 ft | 165 kts | 75° |
| 2026-04-27 13:35 | -11.57184 | -59.35339 | 5541 ft | 165 kts | 75° |
| 2026-04-27 13:36 | -11.56918 | -59.34199 | 5544 ft | 165 kts | 75° |
| 2026-04-27 13:36 | -11.56654 | -59.33069 | 5542 ft | 165 kts | 75° |
| 2026-04-27 13:36 | -11.56388 | -59.31930 | 5539 ft | 165 kts | 75° |
| 2026-04-27 13:36 | -11.56123 | -59.30794 | 5541 ft | 165 kts | 75° |
| 2026-04-27 13:37 | -11.55857 | -59.29657 | 5542 ft | 165 kts | 75° |
| 2026-04-27 13:37 | -11.55590 | -59.28513 | 5541 ft | 165 kts | 75° |
| 2026-04-27 13:37 | -11.55323 | -59.27371 | 5538 ft | 165 kts | 75° |
| 2026-04-27 13:37 | -11.55057 | -59.26229 | 5539 ft | 165 kts | 75° |
| 2026-04-27 13:38 | -11.54790 | -59.25088 | 5538 ft | 165 kts | 75° |
| 2026-04-27 13:38 | -11.54523 | -59.23946 | 5540 ft | 166 kts | 75° |
| 2026-04-27 13:38 | -11.54255 | -59.22801 | 5543 ft | 166 kts | 75° |
| 2026-04-27 13:38 | -11.53988 | -59.21659 | 5560 ft | 166 kts | 75° |
| 2026-04-27 13:39 | -11.53713 | -59.20482 | 5548 ft | 173 kts | 75° |
| 2026-04-27 13:39 | -11.53439 | -59.19317 | 5532 ft | 169 kts | 75° |
| 2026-04-27 13:39 | -11.53168 | -59.18158 | 5544 ft | 167 kts | 75° |
| 2026-04-27 13:39 | -11.52895 | -59.16991 | 5534 ft | 168 kts | 76° |
| 2026-04-27 13:40 | -11.52636 | -59.15824 | 5542 ft | 169 kts | 75° |
| 2026-04-27 13:40 | -11.52345 | -59.14656 | 5530 ft | 169 kts | 75° |
| 2026-04-27 13:40 | -11.52074 | -59.13495 | 5534 ft | 168 kts | 76° |
| 2026-04-27 13:40 | -11.51810 | -59.12345 | 5528 ft | 168 kts | 75° |
| 2026-04-27 13:41 | -11.51552 | -59.11181 | 5526 ft | 167 kts | 75° |
| 2026-04-27 13:41 | -11.51281 | -59.10026 | 5552 ft | 168 kts | 76° |
| 2026-04-27 13:41 | -11.51020 | -59.08860 | 5538 ft | 167 kts | 76° |
| 2026-04-27 13:41 | -11.50762 | -59.07709 | 5546 ft | 166 kts | 75° |
| 2026-04-27 13:42 | -11.50497 | -59.06548 | 5537 ft | 168 kts | 76° |
| 2026-04-27 13:42 | -11.50237 | -59.05397 | 5502 ft | 173 kts | 76° |
| 2026-04-27 13:42 | -11.49980 | -59.04247 | 5141 ft | 159 kts | 76° |
| 2026-04-27 13:42 | -11.49735 | -59.03176 | 4784 ft | 153 kts | 76° |
| 2026-04-27 13:43 | -11.49501 | -59.02134 | 4434 ft | 149 kts | 76° |
| 2026-04-27 13:43 | -11.49267 | -59.01108 | 4081 ft | 149 kts | 76° |
| 2026-04-27 13:43 | -11.49039 | -59.00041 | 3748 ft | 162 kts | 77° |
| 2026-04-27 13:43 | -11.48763 | -58.98867 | 3535 ft | 172 kts | 74° |
| 2026-04-27 13:44 | -11.48489 | -58.97706 | 3565 ft | 166 kts | 75° |
| 2026-04-27 13:44 | -11.48230 | -58.96532 | 3510 ft | 172 kts | 76° |
| 2026-04-27 13:44 | -11.47963 | -58.95396 | 3542 ft | 165 kts | 76° |
| 2026-04-27 13:44 | -11.47706 | -58.94246 | 3569 ft | 169 kts | 77° |
| 2026-04-27 13:45 | -11.47442 | -58.93085 | 3536 ft | 164 kts | 76° |
| 2026-04-27 13:45 | -11.47180 | -58.91946 | 3536 ft | 164 kts | 77° |
| 2026-04-27 13:45 | -11.46934 | -58.90821 | 3531 ft | 162 kts | 77° |
| 2026-04-27 13:45 | -11.46678 | -58.89708 | 3530 ft | 161 kts | 75° |
| 2026-04-27 13:46 | -11.46432 | -58.88592 | 3525 ft | 165 kts | 77° |
| 2026-04-27 13:46 | -11.46169 | -58.87467 | 3529 ft | 162 kts | 76° |
| 2026-04-27 13:46 | -11.45916 | -58.86347 | 3527 ft | 162 kts | 76° |
| 2026-04-27 13:46 | -11.45664 | -58.85234 | 3534 ft | 160 kts | 75° |
| 2026-04-27 13:47 | -11.45410 | -58.84129 | 3526 ft | 160 kts | 76° |
| 2026-04-27 13:47 | -11.45163 | -58.83042 | 3558 ft | 161 kts | 75° |
| 2026-04-27 13:47 | -11.44896 | -58.81890 | 3541 ft | 169 kts | 76° |
| 2026-04-27 13:47 | -11.44640 | -58.80739 | 3547 ft | 165 kts | 76° |
| 2026-04-27 13:48 | -11.44382 | -58.79592 | 3529 ft | 165 kts | 76° |
| 2026-04-27 13:48 | -11.44210 | -58.78835 | 3546 ft | 166 kts | 76° |
| 2026-04-27 13:48 | -11.43954 | -58.77674 | 3326 ft | 169 kts | 79° |
| 2026-04-27 13:48 | -11.44026 | -58.76552 | 2966 ft | 146 kts | 102° |
| 2026-04-27 13:49 | -11.44396 | -58.75634 | 2601 ft | 137 kts | 118° |
| 2026-04-27 13:49 | -11.45011 | -58.74892 | 2207 ft | 137 kts | 136° |
| 2026-04-27 13:49 | -11.45767 | -58.74402 | 2126 ft | 121 kts | 153° |
| 2026-04-27 13:49 | -11.46539 | -58.74155 | 2131 ft | 115 kts | 166° |
| 2026-04-27 13:50 | -11.47315 | -58.73981 | 2127 ft | 111 kts | 164° |
| 2026-04-27 13:50 | -11.48041 | -58.73790 | 2135 ft | 108 kts | 155° |
| 2026-04-27 13:50 | -11.48549 | -58.73229 | 2136 ft | 113 kts | 110° |
| 2026-04-27 13:50 | -11.48591 | -58.72449 | 2146 ft | 112 kts | 77° |
| 2026-04-27 13:51 | -11.48429 | -58.71674 | 2144 ft | 113 kts | 78° |
| 2026-04-27 13:51 | -11.48263 | -58.70881 | 2144 ft | 115 kts | 69° |
| 2026-04-27 13:51 | -11.47769 | -58.70236 | 1971 ft | 121 kts | 36° |
| 2026-04-27 13:51 | -11.46973 | -58.69955 | 1743 ft | 125 kts | 4° |
| 2026-04-27 13:52 | -11.46122 | -58.70108 | 1506 ft | 126 kts | 348° |
| 2026-04-27 13:52 | -11.45264 | -58.70293 | 1343 ft | 123 kts | 349° |
| 2026-04-27 13:52 | -11.44466 | -58.70461 | 1305 ft | 114 kts | 349° |
| 2026-04-27 13:52 | -11.43663 | -58.70631 | 1149 ft | 116 kts | 351° |
| 2026-04-27 13:53 | -11.42467 | -58.70877 | 1085 ft | 47 kts | 347° |
| 2026-04-27 13:53 | -11.42207 | -58.70937 | 1087 ft | 35 kts | 347° |
| 2026-04-27 13:53 | -11.41983 | -58.70988 | 1091 ft | 31 kts | 347° |
| 2026-04-27 13:54 | -11.41814 | -58.70975 | 1093 ft | 21 kts | 71° |
| 2026-04-27 13:54 | -11.41803 | -58.70872 | 1091 ft | 3 kts | 160° |
| 2026-04-27 13:54 | -11.41829 | -58.70868 | 1091 ft | 0 kts | 165° |